Time;durP1;ratioP1;P1;durP2;ratioP2;P2;SDS_P1;SDS_P2;PMS_P1;PMS_P2;Temp;Humidity;BMP_temperature;BMP_pressure;BME280_temperature;BME280_humidity;BME280_pressure;Samples;Min_cycle;Max_cycle;Signal;HPM_P1;HPM_P2
2020/12/31 00:00:26;;;;;;;1.42;0.82;;;14.00;68.10;;;;;;5007532;28;20033;-79
2020/12/31 00:02:53;;;;;;;1.70;0.70;;;14.00;68.20;;;;;;5005435;28;20128;-77
2020/12/31 00:05:19;;;;;;;1.10;0.73;;;14.00;68.10;;;;;;5010701;28;20045;-78
2020/12/31 00:08:05;;;;;;;1.85;1.00;;;14.00;68.10;;;;;;5031009;28;20422;-77
2020/12/31 00:10:42;;;;;;;1.15;0.50;;;14.00;68.10;;;;;;5029439;28;20035;-77
2020/12/31 00:13:20;;;;;;;1.30;0.90;;;14.00;68.10;;;;;;5025778;28;20037;-77
2020/12/31 00:15:57;;;;;;;;;;;14.00;68.10;;;;;;5009733;28;20118;-80
2020/12/31 00:18:37;;;;;;;1.00;0.80;;;14.00;68.20;;;;;;5007383;28;19909;-78
2020/12/31 00:21:03;;;;;;;0.93;0.65;;;14.00;68.10;;;;;;5024693;28;20042;-78
2020/12/31 00:23:29;;;;;;;3.08;0.80;;;14.00;68.20;;;;;;5012475;28;20037;-77
2020/12/31 00:25:55;;;;;;;0.98;0.70;;;14.00;68.10;;;;;;5030276;28;20030;-78
2020/12/31 00:28:33;;;;;;;1.00;0.70;;;13.90;68.10;;;;;;5012438;28;20034;-77
2020/12/31 00:31:04;;;;;;;;;;;14.00;68.10;;;;;;5004709;28;20056;-77
2020/12/31 00:33:30;;;;;;;1.85;0.70;;;14.00;68.10;;;;;;5006551;28;19909;-77
2020/12/31 00:36:00;;;;;;;0.47;0.40;;;14.00;68.20;;;;;;5051344;28;20482;-79
2020/12/31 00:38:31;;;;;;;0.77;0.57;;;14.00;68.10;;;;;;5032582;28;20457;-79
2020/12/31 00:41:01;;;;;;;0.93;0.70;;;14.00;68.20;;;;;;5052499;28;20033;-78
2020/12/31 00:43:30;;;;;;;1.40;0.70;;;14.00;68.20;;;;;;5053255;28;20032;-78
2020/12/31 00:45:55;;;;;;;1.20;0.75;;;14.00;68.10;;;;;;5032770;28;20465;-78
2020/12/31 00:48:21;;;;;;;1.83;0.98;;;14.00;68.10;;;;;;5050686;28;20108;-77
2020/12/31 00:50:52;;;;;;;0.98;0.63;;;14.00;68.10;;;;;;5053567;28;20067;-83
2020/12/31 00:53:24;;;;;;;1.15;0.70;;;14.00;68.20;;;;;;5036322;28;20033;-77
2020/12/31 00:55:56;;;;;;;1.42;0.77;;;14.00;68.20;;;;;;5035190;28;20120;-77
2020/12/31 00:58:24;;;;;;;1.40;0.63;;;14.00;68.20;;;;;;5048407;28;20112;-77
2020/12/31 01:00:50;;;;;;;1.25;0.60;;;13.90;68.20;;;;;;5053574;28;20116;-79
2020/12/31 01:03:16;;;;;;;1.60;0.77;;;14.00;68.20;;;;;;5052823;28;20096;-77
2020/12/31 01:05:42;;;;;;;2.40;0.93;;;13.90;68.20;;;;;;5053310;28;20035;-78
2020/12/31 01:08:11;;;;;;;0.68;0.68;;;13.90;68.20;;;;;;5050192;28;20426;-78
2020/12/31 01:10:41;;;;;;;1.23;0.70;;;14.00;68.20;;;;;;5053353;28;20029;-77
2020/12/31 01:13:11;;;;;;;2.67;0.63;;;14.00;68.20;;;;;;5053309;28;20107;-77
2020/12/31 01:15:37;;;;;;;0.63;0.50;;;14.00;68.20;;;;;;5053907;28;20025;-77
2020/12/31 01:18:08;;;;;;;1.00;0.60;;;14.00;68.20;;;;;;5044845;28;20026;-77
2020/12/31 01:20:39;;;;;;;0.95;0.80;;;14.00;68.10;;;;;;5048558;28;20375;-77
2020/12/31 01:23:14;;;;;;;0.60;0.60;;;14.00;68.20;;;;;;5047436;28;20100;-79
2020/12/31 01:25:44;;;;;;;1.45;1.00;;;14.00;68.20;;;;;;5027395;28;20075;-77
2020/12/31 01:28:10;;;;;;;0.82;0.60;;;14.00;68.20;;;;;;5052538;28;20021;-76
2020/12/31 01:30:40;;;;;;;0.85;0.60;;;13.90;68.10;;;;;;5050798;28;20025;-79
2020/12/31 01:33:11;;;;;;;0.52;0.52;;;13.90;68.10;;;;;;5052384;28;20449;-80
2020/12/31 01:35:45;;;;;;;0.57;0.50;;;14.00;68.20;;;;;;5024988;28;20494;-77
2020/12/31 01:38:13;;;;;;;1.38;0.80;;;14.00;68.20;;;;;;5038055;28;20462;-77
2020/12/31 01:40:52;;;;;;;;;;;13.90;68.20;;;;;;5031038;28;20025;-77
2020/12/31 01:43:25;;;;;;;1.30;0.50;;;14.00;68.10;;;;;;5046710;28;19917;-77
2020/12/31 01:45:54;;;;;;;0.80;0.70;;;13.90;68.20;;;;;;5046791;28;20363;-77
2020/12/31 01:48:25;;;;;;;1.60;0.93;;;13.90;68.10;;;;;;5050234;28;20087;-79
2020/12/31 01:50:52;;;;;;;0.65;0.50;;;13.90;68.20;;;;;;5047280;28;20021;-76
2020/12/31 01:53:19;;;;;;;0.60;0.60;;;13.90;68.20;;;;;;5048856;28;20060;-77
2020/12/31 01:55:45;;;;;;;1.33;0.60;;;13.90;68.20;;;;;;5048160;28;20036;-77
2020/12/31 01:58:12;;;;;;;3.05;1.00;;;13.90;68.20;;;;;;5051463;28;20033;-76
2020/12/31 02:00:52;;;;;;;0.85;0.80;;;13.90;68.20;;;;;;5049919;28;20047;-77
2020/12/31 02:03:17;;;;;;;1.17;0.80;;;13.90;68.10;;;;;;5042077;28;20115;-77
2020/12/31 02:05:46;;;;;;;1.38;0.68;;;13.90;68.10;;;;;;5050189;28;20507;-78
2020/12/31 02:08:11;;;;;;;;;;;14.00;68.10;;;;;;5046745;28;20096;-77
2020/12/31 02:10:37;;;;;;;1.08;0.70;;;13.90;68.20;;;;;;5050531;28;20343;-77
2020/12/31 02:13:07;;;;;;;1.63;0.88;;;13.90;68.10;;;;;;5031725;28;20040;-77
2020/12/31 02:15:36;;;;;;;0.80;0.50;;;13.90;68.20;;;;;;5031219;28;20095;-77
2020/12/31 02:18:04;;;;;;;;;;;13.90;68.10;;;;;;5047281;28;20076;-76
2020/12/31 02:20:37;;;;;;;;;;;13.90;68.20;;;;;;5052442;28;20005;-77
2020/12/31 02:23:03;;;;;;;1.23;0.60;;;13.80;68.20;;;;;;5048699;28;19952;-76
2020/12/31 02:25:29;;;;;;;0.85;0.70;;;13.90;68.20;;;;;;5045073;28;20549;-77
2020/12/31 02:27:57;;;;;;;0.65;0.43;;;13.90;68.20;;;;;;5032193;28;20080;-78
2020/12/31 02:30:35;;;;;;;1.92;0.98;;;13.90;68.20;;;;;;5018195;28;20119;-77
2020/12/31 02:33:00;;;;;;;0.57;0.43;;;13.90;68.20;;;;;;5046845;28;20087;-77
2020/12/31 02:35:26;;;;;;;0.57;0.50;;;13.90;68.20;;;;;;5051411;28;20287;-77
2020/12/31 02:37:52;;;;;;;0.55;0.52;;;13.90;68.20;;;;;;5047322;28;20446;-77
2020/12/31 02:40:30;;;;;;;0.60;0.60;;;13.90;68.20;;;;;;5045778;28;20025;-77
2020/12/31 02:43:00;;;;;;;1.80;0.82;;;13.90;68.20;;;;;;5038234;28;20033;-77
2020/12/31 02:45:37;;;;;;;1.48;0.70;;;13.90;68.20;;;;;;5032636;28;20062;-78
2020/12/31 02:48:03;;;;;;;2.17;1.20;;;13.90;68.20;;;;;;5043682;28;20101;-77
2020/12/31 02:50:33;;;;;;;0.95;0.70;;;13.90;68.20;;;;;;5033140;28;20064;-77
2020/12/31 02:53:03;;;;;;;0.70;0.60;;;13.90;68.20;;;;;;5044101;28;20041;-77
2020/12/31 02:55:29;;;;;;;0.82;0.60;;;13.90;68.20;;;;;;5016407;28;20044;-77
2020/12/31 02:57:59;;;;;;;0.50;0.50;;;13.90;68.20;;;;;;5041491;28;20025;-77
2020/12/31 03:00:25;;;;;;;1.35;0.50;;;13.90;68.20;;;;;;5031600;28;20033;-79
2020/12/31 03:02:56;;;;;;;1.77;0.93;;;13.90;68.20;;;;;;5040629;28;20504;-77
2020/12/31 03:05:34;;;;;;;0.80;0.50;;;13.90;68.20;;;;;;5030128;28;20044;-77
2020/12/31 03:07:59;;;;;;;1.15;0.73;;;13.90;68.20;;;;;;5045020;28;20060;-77
2020/12/31 03:10:25;;;;;;;0.60;0.50;;;13.90;68.20;;;;;;5040717;28;20629;-79
2020/12/31 03:12:56;;;;;;;0.98;0.45;;;13.90;68.20;;;;;;5048369;28;20481;-77
2020/12/31 03:15:22;;;;;;;0.65;0.50;;;13.80;68.20;;;;;;5027348;28;20057;-78
2020/12/31 03:17:49;;;;;;;0.63;0.57;;;13.90;68.20;;;;;;5042060;28;20033;-77
2020/12/31 03:20:29;;;;;;;0.68;0.57;;;13.90;68.20;;;;;;5030968;28;20605;-77
2020/12/31 03:23:08;;;;;;;1.60;0.98;;;13.90;68.20;;;;;;5048885;28;20031;-77
2020/12/31 03:25:38;;;;;;;0.68;0.50;;;13.90;68.20;;;;;;5030064;28;20496;-78
2020/12/31 03:28:04;;;;;;;1.95;0.88;;;13.90;68.20;;;;;;5051117;28;20024;-77
2020/12/31 03:30:36;;;;;;;0.90;0.60;;;13.90;68.20;;;;;;5048616;28;20035;-78
2020/12/31 03:33:14;;;;;;;0.77;0.50;;;13.90;68.20;;;;;;5039826;28;20037;-77
2020/12/31 03:35:44;;;;;;;3.47;0.63;;;13.90;68.20;;;;;;5030701;28;20049;-77
2020/12/31 03:38:11;;;;;;;1.08;0.60;;;13.80;68.20;;;;;;5029784;28;20060;-78
2020/12/31 03:40:38;;;;;;;5.35;1.88;;;13.90;68.20;;;;;;5024602;28;20108;-77
2020/12/31 03:43:15;;;;;;;1.33;0.70;;;13.90;68.20;;;;;;5006453;28;20029;-77
2020/12/31 03:45:42;;;;;;;0.85;0.70;;;13.90;68.20;;;;;;5023170;28;20025;-77
2020/12/31 03:48:12;;;;;;;1.02;0.80;;;13.80;68.20;;;;;;5006568;28;20035;-77
2020/12/31 03:50:43;;;;;;;0.80;0.60;;;13.80;68.20;;;;;;5024005;28;20467;-78
2020/12/31 03:53:12;;;;;;;0.93;0.50;;;13.80;68.30;;;;;;5007259;28;20037;-77
2020/12/31 03:55:43;;;;;;;0.73;0.73;;;13.80;68.30;;;;;;5003439;28;20038;-80
2020/12/31 03:58:22;;;;;;;1.38;0.80;;;13.80;68.20;;;;;;5007007;28;20064;-77
2020/12/31 04:01:00;;;;;;;1.88;0.70;;;13.80;68.30;;;;;;5025661;28;20029;-77
2020/12/31 04:03:51;;;;;;;1.42;0.60;;;13.80;68.30;;;;;;5023962;28;20057;-78
2020/12/31 04:06:29;;;;;;;1.15;0.60;;;13.80;68.20;;;;;;5016893;28;20066;-76
2020/12/31 04:08:55;;;;;;;;;;;13.80;68.30;;;;;;5007953;28;20550;-77
2020/12/31 04:11:33;;;;;;;0.93;0.70;;;13.90;68.30;;;;;;5029786;28;19920;-77
2020/12/31 04:14:20;;;;;;;0.57;0.45;;;13.80;68.30;;;;;;5013069;28;20025;-77
2020/12/31 04:16:57;;;;;;;0.50;0.43;;;13.80;68.30;;;;;;5012299;28;20503;-77
2020/12/31 04:19:25;;;;;;;0.50;0.50;;;13.80;68.30;;;;;;5012504;28;20437;-77
2020/12/31 04:22:03;;;;;;;1.42;0.50;;;13.80;68.30;;;;;;5024172;28;20087;-77
2020/12/31 04:24:35;;;;;;;0.60;0.50;;;13.90;68.30;;;;;;5024220;28;20120;-77
2020/12/31 04:27:06;;;;;;;0.77;0.70;;;13.80;68.30;;;;;;5007400;28;20030;-77
2020/12/31 04:29:39;;;;;;;0.40;0.40;;;13.80;68.30;;;;;;5030417;28;20112;-76
2020/12/31 04:32:11;;;;;;;0.30;0.30;;;13.80;68.30;;;;;;5005774;28;20121;-77
2020/12/31 04:34:52;;;;;;;0.73;0.50;;;13.80;68.30;;;;;;5039435;28;20461;-79
2020/12/31 04:37:22;;;;;;;0.60;0.52;;;13.80;68.30;;;;;;5031958;28;20440;-78
2020/12/31 04:40:02;;;;;;;1.40;0.57;;;13.80;68.30;;;;;;5045367;28;20343;-77
2020/12/31 04:42:36;;;;;;;1.23;0.60;;;13.80;68.30;;;;;;5023771;28;20117;-77
2020/12/31 04:45:10;;;;;;;0.60;0.55;;;13.90;68.30;;;;;;5031409;28;20035;-76
2020/12/31 04:47:59;;;;;;;0.65;0.50;;;13.80;68.40;;;;;;5049380;28;20034;-77
2020/12/31 04:50:34;;;;;;;0.98;0.57;;;13.80;68.40;;;;;;5027412;28;20029;-80
2020/12/31 04:53:08;;;;;;;0.50;0.45;;;13.80;68.30;;;;;;5025098;28;20049;-78
2020/12/31 04:55:46;;;;;;;0.75;0.60;;;13.80;68.30;;;;;;5029756;28;20025;-77
2020/12/31 04:58:16;;;;;;;0.77;0.50;;;13.80;68.30;;;;;;5049936;28;20025;-76
2020/12/31 05:01:01;;;;;;;0.47;0.47;;;13.80;68.30;;;;;;5027298;28;20026;-77
2020/12/31 05:03:42;;;;;;;1.15;0.60;;;13.80;68.40;;;;;;5029347;28;20116;-77
2020/12/31 05:06:15;;;;;;;2.05;0.60;;;13.80;68.30;;;;;;5044019;28;20017;-75
2020/12/31 05:08:42;;;;;;;1.67;0.60;;;13.80;68.30;;;;;;5046933;28;20436;-76
2020/12/31 05:11:39;;;;;;;0.90;0.63;;;13.80;68.40;;;;;;5026298;28;20040;-76
2020/12/31 05:14:10;;;;;;;1.73;0.55;;;13.80;68.40;;;;;;5041424;28;20052;-77
2020/12/31 05:16:41;;;;;;;0.40;0.40;;;13.80;68.40;;;;;;5030625;28;20033;-76
2020/12/31 05:19:22;;;;;;;1.13;0.50;;;13.80;68.40;;;;;;5046581;28;20036;-76
2020/12/31 05:22:11;;;;;;;1.75;0.73;;;13.80;68.40;;;;;;5050650;28;20025;-76
2020/12/31 05:24:52;;;;;;;0.40;0.40;;;13.80;68.40;;;;;;5031308;28;20076;-76
2020/12/31 05:27:28;;;;;;;1.30;0.52;;;13.80;68.40;;;;;;5035660;28;20041;-75
2020/12/31 05:30:24;;;;;;;1.02;0.68;;;13.80;68.40;;;;;;5043938;28;20029;-76
2020/12/31 05:33:10;;;;;;;1.15;0.50;;;13.80;68.40;;;;;;5047334;28;20040;-76
2020/12/31 05:35:39;;;;;;;0.65;0.60;;;13.80;68.40;;;;;;5043421;28;20112;-77
2020/12/31 05:38:20;;;;;;;;;;;13.80;68.40;;;;;;5043831;28;20397;-76
2020/12/31 05:41:11;;;;;;;1.25;0.60;;;13.80;68.40;;;;;;5046771;28;19908;-76
2020/12/31 05:43:59;;;;;;;0.75;0.63;;;13.80;68.40;;;;;;5049942;28;20492;-76
2020/12/31 05:46:52;;;;;;;0.82;0.57;;;13.80;68.40;;;;;;5033581;28;20056;-76
2020/12/31 05:49:32;;;;;;;1.50;0.75;;;13.80;68.40;;;;;;5044079;28;20046;-77
2020/12/31 05:52:10;;;;;;;1.40;0.65;;;13.80;68.40;;;;;;5045416;28;20037;-76
2020/12/31 05:54:56;;;;;;;0.40;0.40;;;13.80;68.40;;;;;;5051953;28;20036;-77
2020/12/31 05:57:43;;;;;;;1.80;0.98;;;13.80;68.40;;;;;;5030259;28;20039;-76
2020/12/31 06:00:56;;;;;;;1.15;0.50;;;13.80;68.40;;;;;;5032145;28;20379;-76
2020/12/31 06:03:45;;;;;;;0.93;0.50;;;13.80;68.40;;;;;;5049073;28;20112;-76
2020/12/31 06:06:24;;;;;;;0.40;0.40;;;13.80;68.40;;;;;;5049562;28;20032;-76
2020/12/31 06:09:05;;;;;;;1.17;0.60;;;13.80;68.40;;;;;;5050251;28;20033;-76
2020/12/31 06:11:38;;;;;;;0.47;0.40;;;13.80;68.50;;;;;;5048346;28;20095;-76
2020/12/31 06:14:13;;;;;;;0.60;0.47;;;13.80;68.40;;;;;;5031747;28;20029;-79
2020/12/31 06:17:02;;;;;;;0.80;0.43;;;13.80;68.40;;;;;;5050122;28;20040;-76
2020/12/31 06:19:42;;;;;;;0.40;0.40;;;13.80;68.50;;;;;;5046830;28;20025;-76
2020/12/31 06:22:28;;;;;;;0.50;0.50;;;13.80;68.50;;;;;;5044813;28;20047;-76
2020/12/31 06:25:04;;;;;;;0.60;0.45;;;13.80;68.50;;;;;;5049975;28;20032;-76
2020/12/31 06:27:39;;;;;;;0.63;0.52;;;13.80;68.50;;;;;;5047921;28;20026;-77
2020/12/31 06:30:12;;;;;;;0.88;0.50;;;13.80;68.50;;;;;;5034357;28;20025;-76
2020/12/31 06:32:51;;;;;;;0.70;0.60;;;13.80;68.50;;;;;;5038988;28;20034;-77
2020/12/31 06:35:30;;;;;;;;;;;13.80;68.50;;;;;;5032492;28;20119;-76
2020/12/31 06:38:03;;;;;;;0.55;0.55;;;13.80;68.50;;;;;;5049444;28;19909;-76
2020/12/31 06:40:44;;;;;;;1.35;0.68;;;13.80;68.50;;;;;;5048951;28;20054;-76
2020/12/31 06:43:35;;;;;;;0.60;0.50;;;13.80;68.50;;;;;;5030147;28;20064;-76
2020/12/31 06:46:31;;;;;;;0.50;0.47;;;13.80;68.50;;;;;;5028075;28;20033;-76
2020/12/31 06:49:02;;;;;;;1.42;0.60;;;13.80;68.50;;;;;;5044446;28;20028;-76
2020/12/31 06:51:43;;;;;;;0.50;0.40;;;13.80;68.50;;;;;;5044570;28;20041;-76
2020/12/31 06:54:11;;;;;;;0.70;0.50;;;13.80;68.50;;;;;;5027189;28;20385;-76
2020/12/31 06:56:50;;;;;;;0.70;0.50;;;13.80;68.50;;;;;;5041500;28;20040;-75
2020/12/31 06:59:36;;;;;;;1.13;0.50;;;13.80;68.60;;;;;;5047294;28;20049;-76
2020/12/31 07:02:31;;;;;;;0.95;0.70;;;13.80;68.50;;;;;;5042546;28;20056;-77
2020/12/31 07:05:22;;;;;;;0.60;0.57;;;13.80;68.50;;;;;;5043836;28;20029;-80
2020/12/31 07:07:53;;;;;;;0.45;0.30;;;13.80;68.50;;;;;;5047014;28;20063;-75
2020/12/31 07:10:53;;;;;;;0.45;0.45;;;13.80;68.50;;;;;;5031020;28;20040;-78
2020/12/31 07:13:39;;;;;;;1.17;0.50;;;13.80;68.50;;;;;;5037754;28;20034;-76
2020/12/31 07:16:17;;;;;;;0.55;0.50;;;13.80;68.50;;;;;;5043258;28;20497;-83
2020/12/31 07:18:52;;;;;;;1.10;0.50;;;13.80;68.50;;;;;;5043487;28;20065;-77
2020/12/31 07:21:27;;;;;;;0.75;0.50;;;13.80;68.50;;;;;;5030891;28;20055;-80
2020/12/31 07:23:57;;;;;;;0.50;0.50;;;13.80;68.50;;;;;;5043849;28;20072;-75
2020/12/31 07:26:45;;;;;;;0.82;0.55;;;13.80;68.50;;;;;;5031123;28;20386;-76
2020/12/31 07:29:34;;;;;;;0.60;0.50;;;13.80;68.50;;;;;;5026807;28;20025;-76
2020/12/31 07:32:04;;;;;;;0.60;0.60;;;13.80;68.40;;;;;;5032003;28;20049;-76
2020/12/31 07:34:45;;;;;;;1.25;0.40;;;13.80;68.50;;;;;;5004638;28;1285437;-78
2020/12/31 07:37:11;;;;;;;0.88;0.50;;;13.80;68.50;;;;;;5019351;28;20067;-76
2020/12/31 07:39:37;;;;;;;1.08;0.52;;;13.80;68.50;;;;;;5043260;28;20060;-80
2020/12/31 07:42:19;;;;;;;0.65;0.50;;;13.80;68.40;;;;;;5022110;28;20032;-76
2020/12/31 07:45:04;;;;;;;0.55;0.55;;;13.80;68.50;;;;;;5049818;28;20036;-75
2020/12/31 07:47:46;;;;;;;0.98;0.50;;;13.80;68.40;;;;;;5051493;28;20060;-77
2020/12/31 07:50:36;;;;;;;0.77;0.40;;;13.80;68.40;;;;;;5031773;28;20036;-76
2020/12/31 07:53:19;;;;;;;0.30;0.30;;;13.80;68.40;;;;;;5031174;28;20040;-76
2020/12/31 07:56:11;;;;;;;0.95;0.40;;;13.80;68.40;;;;;;5024788;28;20490;-76
2020/12/31 07:58:49;;;;;;;0.63;0.45;;;13.80;68.40;;;;;;5028850;28;20036;-76
2020/12/31 08:01:59;;;;;;;0.75;0.40;;;13.80;68.40;;;;;;5022649;28;20033;-79
2020/12/31 08:04:28;;;;;;;0.88;0.50;;;13.80;68.40;;;;;;5029363;28;20041;-76
2020/12/31 08:07:09;;;;;;;0.73;0.50;;;13.80;68.40;;;;;;5045146;28;20393;-76
2020/12/31 08:09:50;;;;;;;0.50;0.50;;;13.80;68.40;;;;;;5039612;28;20028;-75
2020/12/31 08:12:20;;;;;;;0.50;0.45;;;13.80;68.40;;;;;;5047433;28;20120;-76
2020/12/31 08:14:50;;;;;;;0.30;0.20;;;13.80;68.40;;;;;;5044188;28;20029;-76
2020/12/31 08:17:26;;;;;;;0.73;0.50;;;13.80;68.40;;;;;;5053341;28;20463;-76
2020/12/31 08:20:10;;;;;;;1.02;0.70;;;13.80;68.30;;;;;;5023020;28;20037;-76
2020/12/31 08:23:17;;;;;;;0.55;0.45;;;13.80;68.30;;;;;;5041568;28;20033;-76
2020/12/31 08:25:48;;;;;;;0.80;0.38;;;13.80;68.30;;;;;;5039415;28;20060;-78
2020/12/31 08:28:22;;;;;;;0.60;0.50;;;13.80;68.30;;;;;;5027367;28;20055;-78
2020/12/31 08:31:39;;;;;;;;;;;;;;;;;;;;;
2020/12/31 08:34:08;;;;;;;1.05;0.50;;;13.80;68.40;;;;;;5041842;28;20505;-77
2020/12/31 08:36:37;;;;;;;0.70;0.60;;;13.80;68.30;;;;;;5049489;28;20078;-77
2020/12/31 08:39:06;;;;;;;0.50;0.43;;;13.80;68.30;;;;;;5045192;28;20402;-76
2020/12/31 08:41:39;;;;;;;0.30;0.30;;;13.80;68.30;;;;;;5048803;28;20382;-77
2020/12/31 08:44:19;;;;;;;0.55;0.40;;;13.80;68.30;;;;;;5045875;28;20024;-75
2020/12/31 08:46:51;;;;;;;0.50;0.45;;;13.80;68.30;;;;;;5042335;28;20040;-77
2020/12/31 08:49:27;;;;;;;0.47;0.40;;;13.80;68.20;;;;;;5034928;28;20087;-75
2020/12/31 08:51:53;;;;;;;2.05;0.50;;;13.80;68.30;;;;;;5025825;28;20036;-75
2020/12/31 08:54:31;;;;;;;0.90;0.40;;;13.80;68.20;;;;;;5028986;28;20545;-75
2020/12/31 08:57:14;;;;;;;0.73;0.60;;;13.80;68.20;;;;;;5046208;28;20660;-75
2020/12/31 08:59:40;;;;;;;0.80;0.57;;;13.80;68.20;;;;;;5047373;28;20033;-75
2020/12/31 09:02:11;;;;;;;0.30;0.30;;;13.90;68.20;;;;;;5035544;28;20059;-77
2020/12/31 09:05:01;;;;;;;0.60;0.40;;;13.80;68.20;;;;;;5036044;28;20057;-76
2020/12/31 09:07:32;;;;;;;0.40;0.40;;;13.80;68.20;;;;;;5017331;28;20104;-75
2020/12/31 09:10:14;;;;;;;1.40;0.47;;;13.90;68.20;;;;;;5049168;28;20025;-75
2020/12/31 09:12:46;;;;;;;0.30;0.30;;;13.90;68.20;;;;;;5049986;28;20025;-76
2020/12/31 09:15:21;;;;;;;0.85;0.70;;;13.90;68.10;;;;;;5051667;28;20025;-75
2020/12/31 09:17:47;;;;;;;0.50;0.50;;;13.90;68.10;;;;;;5053975;28;20029;-75
2020/12/31 09:20:23;;;;;;;0.45;0.43;;;13.90;68.10;;;;;;5048773;28;20029;-78
2020/12/31 09:23:16;;;;;;;1.08;0.38;;;13.90;68.20;;;;;;5049940;28;20394;-74
2020/12/31 09:25:56;;;;;;;0.70;0.40;;;13.90;68.10;;;;;;5049132;28;20071;-74
2020/12/31 09:28:33;;;;;;;0.85;0.60;;;13.90;68.10;;;;;;5047345;28;20033;-76
2020/12/31 09:31:24;;;;;;;0.47;0.47;;;13.80;68.10;;;;;;5048724;28;20109;-78
2020/12/31 09:33:52;;;;;;;0.47;0.45;;;13.90;68.10;;;;;;5042010;28;20406;-76
2020/12/31 09:36:25;;;;;;;0.40;0.40;;;13.90;68.10;;;;;;5032437;28;20045;-76
2020/12/31 09:38:55;;;;;;;0.28;0.28;;;13.90;68.00;;;;;;5030795;28;20026;-77
2020/12/31 09:41:42;;;;;;;0.43;0.43;;;13.90;68.00;;;;;;5030555;28;20033;-75
2020/12/31 09:44:21;;;;;;;0.65;0.50;;;13.90;68.00;;;;;;5032198;28;20030;-75
2020/12/31 09:46:49;;;;;;;0.82;0.50;;;13.80;68.00;;;;;;5020976;28;20116;-75
2020/12/31 09:49:36;;;;;;;0.65;0.40;;;13.90;68.00;;;;;;5032177;28;20059;-78
2020/12/31 09:52:08;;;;;;;0.47;0.40;;;13.90;68.00;;;;;;5028070;28;20044;-75
2020/12/31 09:54:34;;;;;;;1.58;0.50;;;13.90;68.00;;;;;;5014174;28;20132;-77
2020/12/31 09:57:07;;;;;;;0.50;0.50;;;13.90;68.00;;;;;;5029826;28;20449;-74
2020/12/31 09:59:35;;;;;;;0.40;0.40;;;13.90;68.00;;;;;;4999172;28;20149;-77
2020/12/31 10:02:06;;;;;;;1.00;0.60;;;13.90;68.00;;;;;;5034164;28;20556;-74
2020/12/31 10:04:53;;;;;;;0.70;0.55;;;13.90;67.90;;;;;;5034061;28;20509;-75
2020/12/31 10:07:25;;;;;;;0.38;0.35;;;13.90;67.90;;;;;;5027832;28;20474;-74
2020/12/31 10:09:54;;;;;;;0.75;0.50;;;13.90;67.90;;;;;;5018317;28;20080;-75
2020/12/31 10:12:26;;;;;;;0.98;0.60;;;14.00;67.90;;;;;;5017176;28;20041;-74
2020/12/31 10:15:05;;;;;;;0.70;0.50;;;13.90;67.90;;;;;;5040289;28;20075;-75
2020/12/31 10:17:36;;;;;;;0.40;0.40;;;13.90;67.80;;;;;;5015172;28;20051;-74
2020/12/31 10:20:06;;;;;;;0.60;0.30;;;13.90;67.80;;;;;;5024007;28;20041;-75
2020/12/31 10:22:38;;;;;;;0.93;0.50;;;14.00;67.80;;;;;;5014806;28;20087;-75
2020/12/31 10:25:04;;;;;;;0.50;0.40;;;13.90;67.80;;;;;;5029920;28;20025;-75
2020/12/31 10:27:35;;;;;;;0.50;0.43;;;14.00;67.80;;;;;;5034273;28;20467;-75
2020/12/31 10:30:04;;;;;;;0.43;0.40;;;13.90;67.80;;;;;;5033312;28;20164;-77
2020/12/31 10:32:34;;;;;;;0.40;0.40;;;14.00;67.80;;;;;;5015110;28;20033;-76
2020/12/31 10:35:05;;;;;;;0.70;0.68;;;14.00;67.80;;;;;;5025732;28;20041;-79
2020/12/31 10:37:35;;;;;;;0.45;0.40;;;14.00;67.70;;;;;;5026388;28;20037;-77
2020/12/31 10:40:14;;;;;;;0.80;0.55;;;14.00;67.70;;;;;;5024689;28;20497;-76
2020/12/31 10:42:44;;;;;;;0.30;0.30;;;14.00;67.70;;;;;;5019806;28;20120;-78
2020/12/31 10:45:15;;;;;;;0.43;0.43;;;14.00;67.60;;;;;;5028932;28;20026;-76
2020/12/31 10:47:40;;;;;;;0.45;0.40;;;14.00;67.70;;;;;;5006385;28;20029;-76
2020/12/31 10:50:11;;;;;;;1.75;0.40;;;14.00;67.70;;;;;;5033209;28;20033;-76
2020/12/31 10:52:37;;;;;;;0.52;0.30;;;14.00;67.60;;;;;;5019219;28;20087;-76
2020/12/31 10:55:07;;;;;;;0.65;0.50;;;14.00;67.60;;;;;;5014181;28;20029;-76
2020/12/31 10:57:44;;;;;;;0.90;0.60;;;14.00;67.60;;;;;;5026217;28;20088;-76
2020/12/31 11:00:24;;;;;;;0.32;0.30;;;14.00;67.50;;;;;;5012256;28;20495;-77
2020/12/31 11:03:05;;;;;;;0.98;0.50;;;14.10;67.50;;;;;;5024151;28;20483;-76
2020/12/31 11:05:45;;;;;;;0.65;0.50;;;14.00;67.50;;;;;;5019129;28;20026;-76
2020/12/31 11:08:10;;;;;;;0.65;0.40;;;14.00;67.50;;;;;;5029774;28;20056;-76
2020/12/31 11:10:42;;;;;;;0.57;0.40;;;14.00;67.50;;;;;;5010337;28;20071;-77
2020/12/31 11:13:15;;;;;;;0.65;0.65;;;14.10;67.50;;;;;;5015533;28;20030;-76
2020/12/31 11:15:41;;;;;;;0.47;0.38;;;14.10;67.50;;;;;;5014421;28;20559;-76
2020/12/31 11:18:10;;;;;;;0.60;0.45;;;14.10;67.50;;;;;;5010149;28;20025;-77
2020/12/31 11:20:35;;;;;;;0.60;0.40;;;14.00;67.50;;;;;;5035986;28;20033;-76
2020/12/31 11:23:01;;;;;;;0.40;0.40;;;14.10;67.40;;;;;;5031647;28;20108;-76
2020/12/31 11:25:27;;;;;;;1.15;0.45;;;14.00;67.40;;;;;;5007403;28;20026;-77
2020/12/31 11:27:58;;;;;;;0.60;0.50;;;14.10;67.40;;;;;;5014242;28;20033;-76
2020/12/31 11:30:31;;;;;;;0.70;0.40;;;14.10;67.50;;;;;;5035381;28;20078;-77
2020/12/31 11:33:00;;;;;;;1.23;0.68;;;14.00;67.40;;;;;;5031670;28;20125;-76
2020/12/31 11:35:28;;;;;;;0.47;0.38;;;14.10;67.30;;;;;;5045151;28;20049;-79
2020/12/31 11:38:07;;;;;;;0.57;0.57;;;14.10;67.40;;;;;;5034198;28;20033;-76
2020/12/31 11:40:34;;;;;;;0.55;0.50;;;14.10;67.30;;;;;;5033287;28;20029;-77
2020/12/31 11:43:04;;;;;;;0.85;0.40;;;14.10;67.30;;;;;;5033667;28;20033;-76
2020/12/31 11:45:30;;;;;;;0.30;0.30;;;14.10;67.30;;;;;;5032423;28;20416;-77
2020/12/31 11:48:00;;;;;;;0.25;0.20;;;14.10;67.30;;;;;;5040261;28;20111;-79
2020/12/31 11:50:42;;;;;;;0.70;0.50;;;14.10;67.30;;;;;;5045641;28;20037;-78
2020/12/31 11:53:13;;;;;;;0.95;0.60;;;14.10;67.30;;;;;;5023786;28;20134;-77
2020/12/31 11:55:44;;;;;;;0.75;0.40;;;14.10;67.30;;;;;;5052464;28;20028;-77
2020/12/31 11:58:20;;;;;;;0.68;0.45;;;14.10;67.20;;;;;;5028872;28;20482;-77
2020/12/31 12:00:47;;;;;;;1.13;0.50;;;14.10;67.20;;;;;;5027627;28;20067;-77
2020/12/31 12:03:25;;;;;;;0.90;0.37;;;14.20;67.20;;;;;;5044468;28;20481;-79
2020/12/31 12:06:03;;;;;;;0.75;0.47;;;14.10;67.20;;;;;;5032340;28;20041;-77
2020/12/31 12:08:36;;;;;;;1.00;0.47;;;14.10;67.20;;;;;;5025603;28;20467;-77
2020/12/31 12:11:07;;;;;;;0.73;0.50;;;14.10;67.20;;;;;;5027801;28;20060;-76
2020/12/31 12:13:35;;;;;;;0.60;0.40;;;14.10;67.20;;;;;;5048453;28;20033;-77
2020/12/31 12:16:06;;;;;;;;;;;14.10;67.20;;;;;;5038382;28;20082;-77
2020/12/31 12:18:36;;;;;;;0.70;0.70;;;14.20;67.20;;;;;;5057683;28;20277;-77
2020/12/31 12:21:02;;;;;;;0.47;0.40;;;14.10;67.20;;;;;;5047045;28;20459;-77
2020/12/31 12:23:33;;;;;;;0.20;0.20;;;14.10;67.20;;;;;;5047679;28;20025;-80
2020/12/31 12:26:07;;;;;;;0.28;0.28;;;14.10;67.20;;;;;;5046441;28;20108;-79
2020/12/31 12:28:39;;;;;;;0.30;0.30;;;14.10;67.20;;;;;;5031159;28;20032;-77
2020/12/31 12:31:19;;;;;;;0.40;0.40;;;14.10;67.20;;;;;;5035336;28;20028;-80
2020/12/31 12:33:58;;;;;;;0.43;0.40;;;14.10;67.20;;;;;;5044550;28;20132;-76
2020/12/31 12:36:28;;;;;;;0.40;0.40;;;14.10;67.20;;;;;;5030299;28;20037;-80
2020/12/31 12:38:59;;;;;;;0.40;0.40;;;14.10;67.20;;;;;;5037553;28;20112;-77
2020/12/31 12:41:29;;;;;;;0.45;0.45;;;14.10;67.20;;;;;;5014838;28;20060;-77
2020/12/31 12:43:55;;;;;;;0.47;0.38;;;14.10;67.20;;;;;;5015486;28;20120;-76
2020/12/31 12:46:24;;;;;;;0.60;0.50;;;14.10;67.20;;;;;;5002751;28;20120;-80
2020/12/31 12:48:52;;;;;;;;;;;14.10;67.20;;;;;;5011544;28;20041;-77
2020/12/31 12:51:21;;;;;;;0.68;0.40;;;14.20;67.20;;;;;;5026103;28;20392;-80
2020/12/31 12:53:51;;;;;;;0.82;0.50;;;14.20;67.00;;;;;;5012449;28;20051;-78
2020/12/31 12:56:23;;;;;;;0.30;0.30;;;14.20;67.00;;;;;;5023207;28;20038;-77
2020/12/31 12:58:49;;;;;;;0.80;0.50;;;14.20;67.00;;;;;;5015157;28;20042;-78
2020/12/31 13:01:19;;;;;;;0.70;0.40;;;14.20;66.90;;;;;;5028707;28;20022;-81
2020/12/31 13:03:49;;;;;;;2.13;0.60;;;14.20;66.90;;;;;;5030083;28;20045;-77
2020/12/31 13:06:22;;;;;;;0.65;0.38;;;14.20;66.90;;;;;;5011801;28;20068;-81
2020/12/31 13:09:02;;;;;;;0.57;0.50;;;14.20;66.90;;;;;;5016084;28;20505;-77
2020/12/31 13:11:41;;;;;;;0.38;0.38;;;14.20;66.90;;;;;;5030171;28;20030;-77
2020/12/31 13:14:17;;;;;;;0.40;0.40;;;14.20;67.00;;;;;;5028154;28;20049;-77
2020/12/31 13:16:43;;;;;;;0.50;0.50;;;14.20;67.00;;;;;;5036530;28;20029;-77
2020/12/31 13:19:17;;;;;;;0.45;0.40;;;14.20;67.00;;;;;;5011972;28;20088;-77
2020/12/31 13:21:52;;;;;;;0.38;0.30;;;14.20;66.90;;;;;;5012914;28;20033;-77
2020/12/31 13:24:18;;;;;;;0.40;0.40;;;14.20;67.00;;;;;;5013424;28;20490;-77
2020/12/31 13:26:46;;;;;;;0.30;0.30;;;14.20;67.00;;;;;;5030516;28;20029;-78